La Union, New Mexico
Current Conditions -  °F | °C
As of 8:58 AM on Sunday 23 Nov 2014 (Local Time) from KBIF Reporting Station
Clear Clear  
Wind Chill: 58°   Ceiling: Unl
Heat Index: 58°   Visibility: 9mi
Dew Point: 23°   Wind: 29mph
Humidity: 26%   Direction: 280°W
Pressure: 29.91"   Gusts: 45mph
Location:  32.025°N, 106.63°W
Report Text: KBIF 231558Z AUTO 28025G39KT 9SM CLR 14/M05 A2991 RMK AO2 PK WND 27041/17 SLP088 T01421052 $
Loading
Personal Weather Stations






























Interactive Weather Map New forecast layout! Learn more

10-Day Weather Forecast

Advertisements
Track Severe Weather on mobile